Dianalund, Denmark
Current Conditions -  °F | °C
As of 11:50 AM on Monday 20 Oct 2014 (Local Time) from EKRK Reporting Station
Broken Clouds Broken Clouds  
Wind Chill: 57°   Ceiling: 4300
Heat Index: 57°   Visibility: 6mi
Dew Point: 50°   Wind: 22mph
Humidity: 77%   Direction: 280°W
Pressure: 29.68"   Gusts: 35mph
Location:  55.53°N, 11.49°E
Report Text: EKRK 200950Z AUTO 28019G30KT 9999NDV FEW021/// SCT029///BKN043/// 14/10 Q1005
Loading
Personal Weather Stations






























Interactive Weather Map
Tropical Storm Tracking
New forecast layout! Learn more

10-Day Weather Forecast

Advertisements
Track Severe Weather on mobile